Prague, Czech Republic
Current Conditions -  °F | °C
As of 4:00 PM on Sunday 23 Nov 2014 (Local Time) from LKKB Reporting Station
Haze Haze  
Wind Chill: 41°   Ceiling: 1100
Heat Index: 41°   Visibility: 3mi
Dew Point: 37°   Wind: 0mph
Humidity: 87%   Direction: NA
Pressure: 30.3"   Gusts: NA
Location:  50.08°N, 14.43°E
Report Text: LKKB 231400Z 00000KT 5000 BR OVC011 05/03 Q1026 NOSIG
Loading
Personal Weather Stations






























Interactive Weather Map New forecast layout! Learn more

10-Day Weather Forecast

Advertisements
Track Severe Weather on mobile